Time;durP1;ratioP1;P1;durP2;ratioP2;P2;SDS_P1;SDS_P2;PMS_P1;PMS_P2;Temp;Humidity;BMP_temperature;BMP_pressure;BME280_temperature;BME280_humidity;BME280_pressure;Samples;Min_cycle;Max_cycle;Signal;HPM_P1;HPM_P2
2021/07/05 00:00:29;;;;;;;;;;;;;;;20.73;55.08;95424.06;1032880;28;1372;-78
2021/07/05 00:01:00;;;;;;;;;;;;;;;20.74;55.14;95431.66;1023227;28;2004;-76
2021/07/05 00:01:32;;;;;;;;;;;;;;;20.73;55.12;95432.72;1027274;28;2086;-78
2021/07/05 00:02:02;;;;;;;;;;;;;;;20.73;55.01;95427.44;1029204;28;1117;-78
2021/07/05 00:02:32;;;;;;;;;;;;;;;20.73;55.06;95427.44;1029050;28;1365;-78
2021/07/05 00:03:03;;;;;;;;;;;;;;;20.73;54.85;95432.72;1032503;28;1535;-77
2021/07/05 00:03:33;;;;;;;;;;;;;;;20.72;55.11;95436.44;1036632;28;1042;-77
2021/07/05 00:04:03;;;;;;;;;;;;;;;20.72;55.05;95433.78;1036924;28;1163;-77
2021/07/05 00:04:34;;;;;;;;;;;;;;;20.72;54.91;95431.16;1040350;28;1010;-77
2021/07/05 00:05:04;;;;;;;;;;;;;;;20.72;54.91;95433.78;1037361;28;1898;-77
2021/07/05 00:05:35;;;;;;;;;;;;;;;20.72;55.08;95431.16;1036984;28;1045;-78
2021/07/05 00:06:05;;;;;;;;;;;;;;;20.71;54.95;95420.91;1036348;28;1334;-78
2021/07/05 00:06:35;;;;;;;;;;;;;;;20.71;54.92;95434.84;1037023;28;1123;-77
2021/07/05 00:07:05;;;;;;;;;;;;;;;20.71;55.00;95424.31;1031794;28;2111;-78
2021/07/05 00:07:36;;;;;;;;;;;;;;;20.71;54.91;95428.81;1032960;28;1027;-78
2021/07/05 00:08:06;;;;;;;;;;;;;;;20.71;54.93;95432.22;1034793;28;1913;-77
2021/07/05 00:08:36;;;;;;;;;;;;;;;20.69;54.97;95429.06;1035855;28;1968;-78
2021/07/05 00:09:06;;;;;;;;;;;;;;;20.69;54.88;95423.81;1039116;28;1167;-78
2021/07/05 00:09:37;;;;;;;;;;;;;;;20.70;55.03;95428.03;1036793;28;2213;-78
2021/07/05 00:10:07;;;;;;;;;;;;;;;20.70;54.84;95433.28;1037178;28;2105;-77
2021/07/05 00:10:38;;;;;;;;;;;;;;;20.71;54.87;95429.56;1037050;28;820;-78
2021/07/05 00:11:08;;;;;;;;;;;;;;;20.70;54.94;95433.28;1037987;28;2129;-78
2021/07/05 00:11:39;;;;;;;;;;;;;;;20.71;54.80;95434.84;1036647;28;1206;-78
2021/07/05 00:12:09;;;;;;;;;;;;;;;20.72;54.69;95433.00;1036817;28;785;-77
2021/07/05 00:12:44;;;;;;;;;;;;;;;20.73;54.93;95439.84;1031008;28;2092;-77
2021/07/05 00:13:15;;;;;;;;;;;;;;;20.73;54.82;95432.72;1031416;28;2074;-76
2021/07/05 00:13:45;;;;;;;;;;;;;;;20.73;54.75;95432.72;1033797;28;2046;-77
2021/07/05 00:14:16;;;;;;;;;;;;;;;20.74;54.87;95429.03;1036042;28;2131;-78
2021/07/05 00:14:46;;;;;;;;;;;;;;;20.73;54.76;95432.72;1038330;28;2411;-78
2021/07/05 00:15:22;;;;;;;;;;;;;;;20.73;54.67;95432.72;1040668;28;765;-78
2021/07/05 00:15:54;;;;;;;;;;;;;;;20.72;54.78;95433.78;1040576;28;1131;-77
2021/07/05 00:16:25;;;;;;;;;;;;;;;20.71;54.78;95428.81;1037815;28;2350;-77
2021/07/05 00:16:55;;;;;;;;;;;;;;;20.72;54.64;95431.16;1038962;28;2335;-76
2021/07/05 00:17:25;;;;;;;;;;;;;;;20.72;54.78;95436.44;1041180;28;982;-77
2021/07/05 00:17:58;;;;;;;;;;;;;;;20.71;54.69;95432.22;1037329;28;1758;-76
2021/07/05 00:18:28;;;;;;;;;;;;;;;20.69;54.70;95431.72;1038719;28;2205;-77
2021/07/05 00:18:58;;;;;;;;;;;;;;;20.70;54.76;95438.56;1036547;28;1155;-76
2021/07/05 00:19:29;;;;;;;;;;;;;;;20.70;54.78;95433.28;1034628;28;1151;-77
2021/07/05 00:19:59;;;;;;;;;;;;;;;20.72;54.47;95441.69;1035812;28;1187;-77
2021/07/05 00:20:30;;;;;;;;;;;;;;;20.72;54.57;95436.44;1041043;28;1189;-75
2021/07/05 00:21:00;;;;;;;;;;;;;;;20.72;54.64;95439.06;1040541;28;1154;-78
2021/07/05 00:21:30;;;;;;;;;;;;;;;20.72;54.75;95436.44;1038214;28;1206;-78
2021/07/05 00:22:01;;;;;;;;;;;;;;;20.71;54.55;95441.97;1041675;28;1143;-79
2021/07/05 00:22:31;;;;;;;;;;;;;;;20.70;54.42;95443.81;1040205;28;2307;-78
2021/07/05 00:23:01;;;;;;;;;;;;;;;20.70;54.53;95443.81;1039037;28;2037;-78
2021/07/05 00:23:31;;;;;;;;;;;;;;;20.69;54.50;95431.72;1038927;28;2059;-79
2021/07/05 00:24:02;;;;;;;;;;;;;;;20.69;54.49;95450.16;1041702;28;1356;-78
2021/07/05 00:24:32;;;;;;;;;;;;;;;20.67;54.47;95441.75;1038520;28;1190;-77
2021/07/05 00:25:03;;;;;;;;;;;;;;;20.68;54.71;95439.91;1036522;28;2078;-79
2021/07/05 00:25:34;;;;;;;;;;;;;;;20.69;54.50;95436.97;1031884;28;1956;-78
2021/07/05 00:26:04;;;;;;;;;;;;;;;20.70;54.64;95438.56;1038001;28;1342;-78
2021/07/05 00:26:34;;;;;;;;;;;;;;;20.69;54.70;95434.34;1038629;28;1163;-78
2021/07/05 00:27:05;;;;;;;;;;;;;;;20.69;54.66;95442.25;1036929;28;2102;-78
2021/07/05 00:27:35;;;;;;;;;;;;;;;20.70;54.44;95438.56;1038082;28;2160;-77
2021/07/05 00:28:06;;;;;;;;;;;;;;;20.70;54.59;95437.75;1039859;28;2048;-78
2021/07/05 00:28:36;;;;;;;;;;;;;;;20.69;54.68;95431.72;1040288;28;2205;-77
2021/07/05 00:29:07;;;;;;;;;;;;;;;20.71;54.61;95439.34;1038495;28;2096;-77
2021/07/05 00:29:37;;;;;;;;;;;;;;;20.71;54.53;95440.13;1037844;28;633;-78
2021/07/05 00:30:07;;;;;;;;;;;;;;;20.71;54.66;95439.34;1042171;28;1287;-77
2021/07/05 00:30:37;;;;;;;;;;;;;;;20.72;54.45;95440.91;1039474;28;2191;-78
2021/07/05 00:31:08;;;;;;;;;;;;;;;20.71;54.36;95442.75;1039678;28;1444;-78
2021/07/05 00:31:38;;;;;;;;;;;;;;;20.71;54.62;95444.63;1037708;28;1231;-78
2021/07/05 00:32:08;;;;;;;;;;;;;;;20.71;54.42;95441.97;1033836;28;1211;-78
2021/07/05 00:32:39;;;;;;;;;;;;;;;20.70;54.32;95441.19;1038012;28;1101;-78
2021/07/05 00:33:09;;;;;;;;;;;;;;;20.70;54.53;95443.81;1037780;28;801;-78
2021/07/05 00:33:39;;;;;;;;;;;;;;;20.69;54.58;95436.97;1038461;28;1167;-78
2021/07/05 00:34:10;;;;;;;;;;;;;;;20.70;54.57;95438.56;1038349;28;1667;-78
2021/07/05 00:34:40;;;;;;;;;;;;;;;20.69;54.37;95439.59;1035577;28;2206;-78
2021/07/05 00:35:10;;;;;;;;;;;;;;;20.70;54.50;95446.47;1034343;28;1354;-78
2021/07/05 00:35:41;;;;;;;;;;;;;;;20.70;54.55;95435.94;1030163;28;1164;-77
2021/07/05 00:36:11;;;;;;;;;;;;;;;20.70;54.27;95435.94;1037486;28;1082;-77
2021/07/05 00:36:41;;;;;;;;;;;;;;;20.72;54.43;95436.44;1036510;28;1868;-77
2021/07/05 00:37:11;;;;;;;;;;;;;;;20.70;54.27;95438.56;1034067;28;1939;-78
2021/07/05 00:37:42;;;;;;;;;;;;;;;20.70;54.26;95437.75;1038031;28;2589;-78
2021/07/05 00:38:12;;;;;;;;;;;;;;;20.69;54.21;95442.25;1036730;28;1318;-78
2021/07/05 00:38:42;;;;;;;;;;;;;;;20.69;54.25;95436.97;1032825;28;1928;-78
2021/07/05 00:39:13;;;;;;;;;;;;;;;20.68;54.31;95439.91;1032583;28;2620;-78
2021/07/05 00:39:43;;;;;;;;;;;;;;;20.67;54.30;95433.06;1032332;28;2487;-77
2021/07/05 00:40:13;;;;;;;;;;;;;;;20.68;54.56;95439.91;1036635;28;2537;-77
2021/07/05 00:40:44;;;;;;;;;;;;;;;20.66;54.27;95429.66;1034901;28;1200;-78
2021/07/05 00:41:14;;;;;;;;;;;;;;;20.66;54.22;95432.28;1038210;28;2633;-78
2021/07/05 00:41:44;;;;;;;;;;;;;;;20.68;54.43;95438.06;1033588;28;2179;-78
2021/07/05 00:42:15;;;;;;;;;;;;;;;20.67;54.27;95431.22;1034914;28;2010;-78
2021/07/05 00:42:45;;;;;;;;;;;;;;;20.68;54.45;95432.78;1038413;28;2103;-78
2021/07/05 00:43:15;;;;;;;;;;;;;;;20.68;54.39;95427.53;1040622;28;1490;-78
2021/07/05 00:43:46;;;;;;;;;;;;;;;20.68;54.37;95435.44;1041299;28;1138;-78
2021/07/05 00:44:16;;;;;;;;;;;;;;;20.69;54.45;95425.69;1035305;28;2485;-78
2021/07/05 00:44:46;;;;;;;;;;;;;;;20.69;54.48;95428.31;1036329;28;2319;-78
2021/07/05 00:45:17;;;;;;;;;;;;;;;20.69;54.16;95429.06;1036343;28;1981;-78
2021/07/05 00:45:48;;;;;;;;;;;;;;;20.69;54.43;95423.81;1038720;28;2447;-77
2021/07/05 00:46:18;;;;;;;;;;;;;;;20.71;54.20;95426.19;1037762;28;1577;-78
2021/07/05 00:46:48;;;;;;;;;;;;;;;20.71;54.12;95426.94;1033472;28;1152;-78
2021/07/05 00:47:18;;;;;;;;;;;;;;;20.72;54.33;95425.09;1024712;28;2495;-78
2021/07/05 00:47:49;;;;;;;;;;;;;;;20.72;54.21;95425.91;1024136;28;2430;-78
2021/07/05 00:48:19;;;;;;;;;;;;;;;20.72;54.30;95418.00;1029203;28;820;-77
2021/07/05 00:48:49;;;;;;;;;;;;;;;20.72;54.31;95423.25;1033256;28;1160;-77
2021/07/05 00:49:20;;;;;;;;;;;;;;;20.71;54.11;95421.69;1041691;28;1214;-78
2021/07/05 00:49:50;;;;;;;;;;;;;;;20.72;54.28;95419.84;1036869;28;1190;-78
2021/07/05 00:50:21;;;;;;;;;;;;;;;20.71;54.16;95418.28;1037594;28;1414;-77
2021/07/05 00:50:51;;;;;;;;;;;;;;;20.71;54.12;95416.41;1038014;28;1136;-77
2021/07/05 00:51:22;;;;;;;;;;;;;;;20.72;54.02;95419.84;1033523;28;1332;-78
2021/07/05 00:51:52;;;;;;;;;;;;;;;20.71;54.27;95418.28;1035415;28;1147;-77
2021/07/05 00:52:22;;;;;;;;;;;;;;;20.71;54.16;95419.03;1030137;28;2105;-78
2021/07/05 00:52:53;;;;;;;;;;;;;;;20.72;54.04;95422.47;1028782;28;2121;-78
2021/07/05 00:53:24;;;;;;;;;;;;;;;20.70;54.02;95420.13;1032793;28;1187;-78
2021/07/05 00:53:54;;;;;;;;;;;;;;;20.70;54.26;95417.50;1032940;28;1338;-77
2021/07/05 00:54:25;;;;;;;;;;;;;;;20.69;53.99;95421.16;1025618;28;1333;-77
2021/07/05 00:54:55;;;;;;;;;;;;;;;20.69;54.33;95426.44;1027521;28;1180;-78
2021/07/05 00:55:25;;;;;;;;;;;;;;;20.68;54.21;95417.00;1021805;28;715;-78
2021/07/05 00:55:56;;;;;;;;;;;;;;;20.69;54.28;95425.69;1027641;28;1370;-78
2021/07/05 00:56:26;;;;;;;;;;;;;;;20.68;54.01;95418.84;1036177;28;2484;-78
2021/07/05 00:56:56;;;;;;;;;;;;;;;20.65;54.22;95430.69;1032145;28;1207;-78
2021/07/05 00:57:28;;;;;;;;;;;;;;;20.65;54.18;95428.06;1036475;28;2508;-78
2021/07/05 00:57:58;;;;;;;;;;;;;;;20.63;54.23;95417.03;1033076;28;1354;-77
2021/07/05 00:58:29;;;;;;;;;;;;;;;20.63;53.98;95422.31;1029494;28;2167;-78
2021/07/05 00:58:59;;;;;;;;;;;;;;;20.62;53.96;95419.97;1036137;28;1175;-78
2021/07/05 00:59:29;;;;;;;;;;;;;;;20.63;54.26;95424.94;1033959;28;1031;-77
2021/07/05 01:00:00;;;;;;;;;;;;;;;20.62;54.06;95426.00;1033322;28;1313;-76
2021/07/05 01:00:30;;;;;;;;;;;;;;;20.62;54.34;95418.13;1033287;28;1316;-77
2021/07/05 01:01:00;;;;;;;;;;;;;;;20.62;54.10;95420.75;1029204;28;1223;-77
2021/07/05 01:01:31;;;;;;;;;;;;;;;20.63;54.03;95426.81;1029535;28;1164;-77
2021/07/05 01:02:01;;;;;;;;;;;;;;;20.63;54.00;95427.56;1036878;28;1175;-78
2021/07/05 01:02:31;;;;;;;;;;;;;;;20.63;54.23;95427.56;1037051;28;2242;-78
2021/07/05 01:03:02;;;;;;;;;;;;;;;20.62;54.17;95423.38;1039890;28;1222;-78
2021/07/05 01:03:32;;;;;;;;;;;;;;;20.62;54.05;95426.00;1037686;28;1059;-77
2021/07/05 01:04:02;;;;;;;;;;;;;;;20.63;54.16;95426.81;1044009;28;1176;-77
2021/07/05 01:04:33;;;;;;;;;;;;;;;20.63;54.19;95424.16;1036774;28;2448;-78
2021/07/05 01:05:03;;;;;;;;;;;;;;;20.63;54.16;95421.53;1041268;28;1906;-78
2021/07/05 01:05:34;;;;;;;;;;;;;;;20.62;54.24;95422.59;1042226;28;807;-78
2021/07/05 01:06:04;;;;;;;;;;;;;;;20.62;54.25;95426.00;1041750;28;1155;-78
2021/07/05 01:06:34;;;;;;;;;;;;;;;20.64;54.02;95425.72;1040402;28;2367;-77
2021/07/05 01:07:05;;;;;;;;;;;;;;;20.62;54.29;95425.22;1036320;28;2013;-76
2021/07/05 01:07:35;;;;;;;;;;;;;;;20.64;54.01;95425.72;1037443;28;1585;-77
2021/07/05 01:08:06;;;;;;;;;;;;;;;20.63;54.19;95424.94;1041190;28;1155;-77
2021/07/05 01:08:36;;;;;;;;;;;;;;;20.63;54.18;95421.53;1037178;28;1198;-78
2021/07/05 01:09:06;;;;;;;;;;;;;;;20.63;54.01;95424.16;1033473;28;1180;-77
2021/07/05 01:09:36;;;;;;;;;;;;;;;20.63;54.21;95422.31;1029394;28;1192;-78
2021/07/05 01:10:07;;;;;;;;;;;;;;;20.62;54.02;95431.28;1029208;28;1208;-78
2021/07/05 01:10:37;;;;;;;;;;;;;;;20.63;54.04;95427.56;1033389;28;1191;-77
2021/07/05 01:11:07;;;;;;;;;;;;;;;20.63;54.08;95432.84;1037173;28;1231;-78
2021/07/05 01:11:38;;;;;;;;;;;;;;;20.64;54.12;95423.88;1038019;28;784;-78
2021/07/05 01:12:08;;;;;;;;;;;;;;;20.65;54.03;95435.97;1040196;28;2193;-78
2021/07/05 01:12:39;;;;;;;;;;;;;;;20.65;53.92;95432.56;1041028;28;1047;-78
2021/07/05 01:13:09;;;;;;;;;;;;;;;20.64;54.00;95429.16;1040427;28;1049;-78
2021/07/05 01:13:39;;;;;;;;;;;;;;;20.66;54.06;95436.75;1041256;28;1154;-78
2021/07/05 01:14:10;;;;;;;;;;;;;;;20.66;53.99;95429.66;1041291;28;1130;-78
2021/07/05 01:14:40;;;;;;;;;;;;;;;20.67;54.00;95425.19;1039604;28;1165;-78
2021/07/05 01:15:12;;;;;;;;;;;;;;;20.66;54.21;95429.66;1039517;28;1968;-78
2021/07/05 01:15:42;;;;;;;;;;;;;;;20.67;53.97;95428.56;1040448;28;1250;-78
2021/07/05 01:16:12;;;;;;;;;;;;;;;20.68;54.31;95429.38;1041364;28;1139;-79
2021/07/05 01:16:43;;;;;;;;;;;;;;;20.67;53.98;95425.94;1041399;28;933;-77
2021/07/05 01:17:13;;;;;;;;;;;;;;;20.67;53.98;95423.31;1040783;28;2546;-77
2021/07/05 01:17:44;;;;;;;;;;;;;;;20.67;54.21;95428.56;1038258;28;1218;-77
2021/07/05 01:18:14;;;;;;;;;;;;;;;20.68;54.26;95424.88;1041247;28;868;-77
2021/07/05 01:18:44;;;;;;;;;;;;;;;20.67;53.85;95425.94;1037622;28;1262;-77
2021/07/05 01:19:15;;;;;;;;;;;;;;;20.68;54.05;95426.72;1032240;28;2336;-77
2021/07/05 01:19:46;;;;;;;;;;;;;;;20.68;53.97;95424.09;1036272;28;1103;-77
2021/07/05 01:20:18;;;;;;;;;;;;;;;20.68;53.85;95426.72;1025474;28;1205;-77
2021/07/05 01:20:48;;;;;;;;;;;;;;;20.69;54.16;95431.72;1023303;28;2498;-77
2021/07/05 01:21:18;;;;;;;;;;;;;;;20.70;53.90;95427.22;1025070;29;1038;-77
2021/07/05 01:21:49;;;;;;;;;;;;;;;20.70;53.91;95428.03;1028058;28;1148;-77
2021/07/05 01:22:19;;;;;;;;;;;;;;;20.70;54.13;95433.28;1030807;28;2516;-78
2021/07/05 01:22:49;;;;;;;;;;;;;;;20.71;53.81;95426.94;1037275;28;1819;-78
2021/07/05 01:23:19;;;;;;;;;;;;;;;20.70;54.04;95427.22;1032365;28;601;-77
2021/07/05 01:23:50;;;;;;;;;;;;;;;20.69;53.96;95431.72;1034992;28;1132;-77
2021/07/05 01:24:20;;;;;;;;;;;;;;;20.68;53.84;95427.53;1034742;28;1209;-77
2021/07/05 01:24:50;;;;;;;;;;;;;;;20.69;53.93;95425.69;1039058;28;1792;-77
2021/07/05 01:25:22;;;;;;;;;;;;;;;20.69;53.76;95430.94;1037536;28;1910;-77
2021/07/05 01:25:53;;;;;;;;;;;;;;;20.69;53.98;95425.69;1037587;28;1391;-77
2021/07/05 01:26:23;;;;;;;;;;;;;;;20.67;54.00;95419.91;1038445;28;804;-78
2021/07/05 01:26:53;;;;;;;;;;;;;;;20.67;53.91;95418.03;1039518;28;1566;-78
2021/07/05 01:27:24;;;;;;;;;;;;;;;20.67;53.72;95422.53;1035989;28;2155;-77
2021/07/05 01:27:54;;;;;;;;;;;;;;;20.66;54.09;95418.31;1037331;28;1195;-77
2021/07/05 01:28:24;;;;;;;;;;;;;;;20.67;54.09;95417.28;1036967;28;766;-77
2021/07/05 01:28:54;;;;;;;;;;;;;;;20.66;53.91;95421.75;1040288;28;2531;-78
2021/07/05 01:29:25;;;;;;;;;;;;;;;20.66;53.85;95421.75;1041382;28;1375;-78
2021/07/05 01:29:55;;;;;;;;;;;;;;;20.67;54.05;95423.31;1041461;28;1147;-78
2021/07/05 01:30:25;;;;;;;;;;;;;;;20.67;53.97;95419.91;1038457;28;2033;-78
2021/07/05 01:30:55;;;;;;;;;;;;;;;20.67;54.06;95423.31;1040445;28;1289;-79
2021/07/05 01:31:26;;;;;;;;;;;;;;;20.67;53.85;95417.28;1041349;28;1321;-78
2021/07/05 01:31:56;;;;;;;;;;;;;;;20.66;54.04;95416.47;1037114;28;1140;-79
2021/07/05 01:32:26;;;;;;;;;;;;;;;20.67;54.04;95420.66;1036202;28;2000;-78
2021/07/05 01:33:00;;;;;;;;;;;;;;;20.67;54.31;95415.41;1036055;28;1881;-78
2021/07/05 01:33:31;;;;;;;;;;;;;;;20.67;54.05;95412.78;1037653;28;801;-78
2021/07/05 01:34:01;;;;;;;;;;;;;;;20.67;53.94;95412.00;1039550;28;1135;-79
2021/07/05 01:34:32;;;;;;;;;;;;;;;20.66;54.04;95411.22;1036922;28;1442;-78
2021/07/05 01:35:03;;;;;;;;;;;;;;;20.67;53.95;95404.09;1040488;28;1135;-79
2021/07/05 01:35:33;;;;;;;;;;;;;;;20.67;54.01;95406.75;1039751;28;1224;-78
2021/07/05 01:36:03;;;;;;;;;;;;;;;20.66;54.01;95405.16;1036537;28;1478;-79
2021/07/05 01:36:34;;;;;;;;;;;;;;;20.68;54.13;95411.72;1037507;28;1501;-78
2021/07/05 01:37:04;;;;;;;;;;;;;;;20.68;54.12;95414.34;1036737;28;1167;-78
2021/07/05 01:37:35;;;;;;;;;;;;;;;20.67;53.77;95412.78;1032887;28;2101;-78
2021/07/05 01:38:12;;;;;;;;;;;;;;;20.68;53.90;95409.09;1040070;28;1136;-78
2021/07/05 01:38:42;;;;;;;;;;;;;;;20.69;54.06;95415.16;1041539;28;1233;-78
2021/07/05 01:39:13;;;;;;;;;;;;;;;20.69;54.08;95415.91;1039601;28;1071;-78
2021/07/05 01:39:43;;;;;;;;;;;;;;;20.68;53.83;95414.34;1037782;28;1140;-78
2021/07/05 01:40:17;;;;;;;;;;;;;;;20.68;54.00;95417.00;1037255;28;1162;-79
2021/07/05 01:40:55;;;;;;;;;;;;;;;20.69;54.00;95415.16;1040128;28;1036;-78
2021/07/05 01:41:26;;;;;;;;;;;;;;;20.68;53.87;95409.09;1041513;28;1134;-78
2021/07/05 01:41:56;;;;;;;;;;;;;;;20.70;54.01;95414.06;1037004;28;1318;-79
2021/07/05 01:42:26;;;;;;;;;;;;;;;20.70;53.98;95414.06;1037382;28;2022;-79
2021/07/05 01:42:57;;;;;;;;;;;;;;;20.70;53.99;95420.13;1041388;28;1096;-77
2021/07/05 01:43:28;;;;;;;;;;;;;;;20.70;54.02;95420.13;1041503;28;1018;-78
2021/07/05 01:43:58;;;;;;;;;;;;;;;20.71;53.96;95416.41;1035389;28;1305;-78
2021/07/05 01:44:29;;;;;;;;;;;;;;;20.71;54.06;95413.78;1033309;28;1050;-79
2021/07/05 01:45:00;;;;;;;;;;;;;;;20.71;53.94;95413.78;1033387;28;1120;-78
2021/07/05 01:45:31;;;;;;;;;;;;;;;20.71;53.80;95413.00;1029395;28;1918;-77
2021/07/05 01:46:01;;;;;;;;;;;;;;;20.72;53.76;95407.44;1039972;28;1383;-78
2021/07/05 01:46:31;;;;;;;;;;;;;;;20.71;53.94;95408.50;1041512;28;852;-79
2021/07/05 01:47:02;;;;;;;;;;;;;;;20.73;54.02;95411.63;1039385;28;1179;-78
2021/07/05 01:47:32;;;;;;;;;;;;;;;20.74;53.82;95413.22;1033237;28;2135;-78
2021/07/05 01:48:02;;;;;;;;;;;;;;;20.73;54.13;95409.00;1035999;28;1191;-77
2021/07/05 01:48:33;;;;;;;;;;;;;;;20.75;54.04;95408.75;1035774;28;1140;-78
2021/07/05 01:49:03;;;;;;;;;;;;;;;20.75;53.71;95406.88;1035811;28;1159;-79
2021/07/05 01:49:33;;;;;;;;;;;;;;;20.74;53.75;95410.59;1036947;28;1901;-78
2021/07/05 01:50:04;;;;;;;;;;;;;;;20.76;53.77;95411.09;1040609;28;1421;-78
2021/07/05 01:50:34;;;;;;;;;;;;;;;20.77;53.73;95411.88;1033150;28;1425;-78
2021/07/05 01:51:04;;;;;;;;;;;;;;;20.77;53.84;95412.66;1030406;28;1998;-78
2021/07/05 01:51:34;;;;;;;;;;;;;;;20.76;53.75;95405.81;1034825;28;2194;-78
2021/07/05 01:52:05;;;;;;;;;;;;;;;20.77;53.84;95411.88;1033412;28;1219;-78
2021/07/05 01:52:35;;;;;;;;;;;;;;;20.77;53.56;95412.66;1041370;28;1061;-78
2021/07/05 01:53:05;;;;;;;;;;;;;;;20.77;53.55;95415.28;1044665;28;1226;-78
2021/07/05 01:53:36;;;;;;;;;;;;;;;20.76;53.69;95411.09;1041166;28;1226;-78
2021/07/05 01:54:06;;;;;;;;;;;;;;;20.75;53.76;95406.88;1041034;28;1132;-78
2021/07/05 01:54:36;;;;;;;;;;;;;;;20.76;53.81;95412.94;1041570;28;747;-78
2021/07/05 01:55:07;;;;;;;;;;;;;;;20.76;53.88;95411.09;1039978;28;1207;-78
2021/07/05 01:55:38;;;;;;;;;;;;;;;20.76;53.76;95415.56;1037762;28;1311;-78
2021/07/05 01:56:08;;;;;;;;;;;;;;;20.75;53.91;95408.75;1040321;28;1974;-78
2021/07/05 01:56:38;;;;;;;;;;;;;;;20.75;53.59;95408.75;1037206;28;1191;-79
2021/07/05 01:57:24;;;;;;;;;;;;;;;20.76;53.78;95415.56;1037837;28;979;-79
2021/07/05 01:57:54;;;;;;;;;;;;;;;20.76;53.88;95419.00;1035923;28;1124;-78
2021/07/05 01:58:25;;;;;;;;;;;;;;;20.76;53.73;95416.34;1037346;28;1092;-78
2021/07/05 01:58:55;;;;;;;;;;;;;;;20.77;53.80;95411.88;1037457;28;1184;-78
2021/07/05 01:59:25;;;;;;;;;;;;;;;20.77;53.63;95417.16;1035641;28;2297;-78
2021/07/05 01:59:56;;;;;;;;;;;;;;;20.76;53.69;95420.84;1038980;28;1206;-77
2021/07/05 02:00:27;;;;;;;;;;;;;;;20.76;53.53;95416.34;1037055;28;2301;-78
2021/07/05 02:00:57;;;;;;;;;;;;;;;20.77;53.78;95417.16;1037417;28;1962;-79
2021/07/05 02:01:30;;;;;;;;;;;;;;;20.77;53.79;95417.91;1038094;28;2197;-78
2021/07/05 02:02:00;;;;;;;;;;;;;;;20.78;53.65;95421.34;1037648;28;1383;-78
2021/07/05 02:02:30;;;;;;;;;;;;;;;20.77;53.65;95422.41;1038262;28;808;-79
2021/07/05 02:03:01;;;;;;;;;;;;;;;20.77;53.78;95422.41;1043270;28;1198;-78
2021/07/05 02:03:31;;;;;;;;;;;;;;;20.76;53.62;95419.00;1041395;28;1035;-78
2021/07/05 02:04:02;;;;;;;;;;;;;;;20.77;53.82;95423.19;1041367;28;1147;-78
2021/07/05 02:04:32;;;;;;;;;;;;;;;20.77;53.95;95420.53;1035684;28;1159;-78
2021/07/05 02:05:04;;;;;;;;;;;;;;;20.77;53.68;95420.53;1036567;28;1906;-78
2021/07/05 02:05:35;;;;;;;;;;;;;;;20.77;53.62;95423.19;1037729;28;1106;-78
2021/07/05 02:06:05;;;;;;;;;;;;;;;20.78;53.80;95421.34;1039550;28;1896;-77
2021/07/05 02:06:36;;;;;;;;;;;;;;;20.78;53.88;95418.69;1040036;28;1498;-78
2021/07/05 02:07:06;;;;;;;;;;;;;;;20.76;53.57;95426.91;1041640;28;1036;-78
2021/07/05 02:07:36;;;;;;;;;;;;;;;20.76;53.77;95412.94;1042008;28;753;-78
2021/07/05 02:08:07;;;;;;;;;;;;;;;20.75;53.69;95414.00;1039541;28;1179;-77
2021/07/05 02:08:37;;;;;;;;;;;;;;;20.75;53.72;95416.66;1041207;28;1006;-78
2021/07/05 02:09:07;;;;;;;;;;;;;;;20.76;53.63;95426.09;1041034;28;1230;-78
2021/07/05 02:09:38;;;;;;;;;;;;;;;20.75;53.52;95419.28;1039121;28;2208;-78
2021/07/05 02:10:10;;;;;;;;;;;;;;;20.74;53.75;95413.22;1035908;28;1784;-77
2021/07/05 02:10:40;;;;;;;;;;;;;;;20.74;53.85;95413.22;1037556;28;1116;-77
2021/07/05 02:11:10;;;;;;;;;;;;;;;20.75;53.74;95414.00;1040140;28;2098;-79
2021/07/05 02:11:41;;;;;;;;;;;;;;;20.74;53.85;95418.50;1033683;28;1219;-78
2021/07/05 02:12:11;;;;;;;;;;;;;;;20.75;53.73;95414.78;1041561;28;875;-79
2021/07/05 02:12:42;;;;;;;;;;;;;;;20.77;53.80;95414.50;1041747;28;1186;-78
2021/07/05 02:13:16;;;;;;;;;;;;;;;20.77;53.80;95410.00;1037981;28;1242;-78
2021/07/05 02:13:47;;;;;;;;;;;;;;;20.77;53.80;95412.66;1039139;28;1143;-78
2021/07/05 02:14:17;;;;;;;;;;;;;;;20.79;53.86;95417.66;1041508;28;1054;-78
2021/07/05 02:14:47;;;;;;;;;;;;;;;20.79;53.73;95405.25;1035223;28;1920;-78
2021/07/05 02:15:17;;;;;;;;;;;;;;;20.80;53.43;95409.47;1036464;28;1928;-78
2021/07/05 02:15:49;;;;;;;;;;;;;;;20.81;53.65;95410.25;1033383;28;1144;-79
2021/07/05 02:16:19;;;;;;;;;;;;;;;20.80;53.82;95408.66;1035126;28;2103;-78
2021/07/05 02:16:50;;;;;;;;;;;;;;;20.81;53.69;95407.63;1037188;28;1143;-78
2021/07/05 02:17:20;;;;;;;;;;;;;;;20.80;53.66;95401.56;1033433;28;1603;-78
2021/07/05 02:17:50;;;;;;;;;;;;;;;20.80;53.59;95401.56;1036120;28;1147;-78
2021/07/05 02:18:21;;;;;;;;;;;;;;;20.81;53.77;95413.66;1032835;28;1968;-78
2021/07/05 02:18:51;;;;;;;;;;;;;;;20.82;53.78;95404.69;1034972;28;1173;-79
2021/07/05 02:19:22;;;;;;;;;;;;;;;20.82;53.72;95401.25;1041197;28;1235;-79
2021/07/05 02:19:52;;;;;;;;;;;;;;;20.82;53.54;95407.31;1038761;28;1159;-77
2021/07/05 02:20:24;;;;;;;;;;;;;;;20.83;53.52;95403.63;1041803;28;1329;-78
2021/07/05 02:20:54;;;;;;;;;;;;;;;20.83;53.75;95403.63;1041467;28;1151;-78
2021/07/05 02:21:25;;;;;;;;;;;;;;;20.85;53.63;95405.97;1037208;28;2120;-79
2021/07/05 02:21:55;;;;;;;;;;;;;;;20.82;53.61;95399.41;1041463;28;1179;-79
2021/07/05 02:22:25;;;;;;;;;;;;;;;20.83;53.66;95398.38;1041314;28;703;-79
2021/07/05 02:22:55;;;;;;;;;;;;;;;20.83;53.62;95398.38;1038029;28;1174;-79
2021/07/05 02:23:26;;;;;;;;;;;;;;;20.84;53.69;95397.28;1036628;28;1103;-78
2021/07/05 02:23:56;;;;;;;;;;;;;;;20.82;53.63;95399.41;1039003;28;1155;-78
2021/07/05 02:24:26;;;;;;;;;;;;;;;20.81;53.70;95397.84;1035088;28;1250;-78
2021/07/05 02:24:56;;;;;;;;;;;;;;;20.82;53.57;95396.78;1033328;28;1849;-78
2021/07/05 02:25:28;;;;;;;;;;;;;;;20.82;53.46;95399.41;1041219;28;1906;-78
2021/07/05 02:25:58;;;;;;;;;;;;;;;20.81;53.62;95397.84;1038858;28;1436;-77
2021/07/05 02:26:29;;;;;;;;;;;;;;;20.81;53.57;95404.97;1038987;28;2281;-78
2021/07/05 02:26:59;;;;;;;;;;;;;;;20.81;53.66;95402.34;1041508;28;1139;-77
2021/07/05 02:27:30;;;;;;;;;;;;;;;20.81;53.50;95408.38;1039690;28;1282;-77
2021/07/05 02:28:01;;;;;;;;;;;;;;;20.81;53.51;95408.38;1038644;28;1116;-77
2021/07/05 02:28:34;;;;;;;;;;;;;;;20.82;53.52;95411.81;1037272;28;1085;-78
2021/07/05 02:29:04;;;;;;;;;;;;;;;20.80;53.47;95401.56;1039716;28;1136;-78
2021/07/05 02:29:35;;;;;;;;;;;;;;;20.80;53.71;95400.75;1037488;28;1187;-78
2021/07/05 02:30:07;;;;;;;;;;;;;;;20.79;53.73;95407.88;1040918;28;1218;-77
2021/07/05 02:30:37;;;;;;;;;;;;;;;20.79;53.66;95405.25;1041219;28;2133;-78
2021/07/05 02:31:08;;;;;;;;;;;;;;;20.78;53.41;95403.69;1039985;28;2006;-77
2021/07/05 02:31:39;;;;;;;;;;;;;;;20.78;53.50;95408.16;1037266;28;2087;-77
2021/07/05 02:32:09;;;;;;;;;;;;;;;20.76;53.66;95408.47;1041259;28;1006;-78
2021/07/05 02:32:41;;;;;;;;;;;;;;;20.74;53.64;95402.69;1041421;28;1191;-77
2021/07/05 02:33:11;;;;;;;;;;;;;;;20.74;53.74;95405.31;1041577;28;1126;-78
2021/07/05 02:33:41;;;;;;;;;;;;;;;20.75;53.61;95404.25;1039954;28;1904;-78
2021/07/05 02:34:12;;;;;;;;;;;;;;;20.74;53.65;95405.31;1037761;28;1647;-77
2021/07/05 02:34:42;;;;;;;;;;;;;;;20.74;53.53;95401.91;1037845;28;989;-77
2021/07/05 02:35:13;;;;;;;;;;;;;;;20.74;53.57;95405.31;1041361;28;758;-78
2021/07/05 02:35:43;;;;;;;;;;;;;;;20.75;53.67;95398.22;1039310;28;1613;-78
2021/07/05 02:36:14;;;;;;;;;;;;;;;20.76;53.66;95403.19;1039833;28;1864;-78
2021/07/05 02:36:44;;;;;;;;;;;;;;;20.76;53.57;95408.47;1036944;28;1855;-77
2021/07/05 02:37:14;;;;;;;;;;;;;;;20.77;53.83;95406.63;1035783;28;1255;-78
2021/07/05 02:37:45;;;;;;;;;;;;;;;20.77;53.88;95407.38;1037964;28;1198;-78
2021/07/05 02:38:15;;;;;;;;;;;;;;;20.77;53.53;95407.38;1036869;28;1242;-78
2021/07/05 02:38:47;;;;;;;;;;;;;;;20.76;53.78;95403.19;1036954;28;2343;-78
2021/07/05 02:39:18;;;;;;;;;;;;;;;20.76;53.49;95405.81;1037288;28;1096;-78
2021/07/05 02:39:48;;;;;;;;;;;;;;;20.75;53.58;95408.75;1038427;28;1383;-78
2021/07/05 02:40:19;;;;;;;;;;;;;;;20.74;53.72;95405.31;1043225;28;1279;-77
2021/07/05 02:40:50;;;;;;;;;;;;;;;20.75;53.86;95408.75;1038721;28;1234;-78
2021/07/05 02:41:20;;;;;;;;;;;;;;;20.75;53.65;95416.66;1038524;28;1833;-78
2021/07/05 02:41:51;;;;;;;;;;;;;;;20.74;53.73;95413.22;1034638;28;1026;-78